Fairchild, Wisconsin
Current Conditions -  °F | °C
As of 4:15 PM on Thursday 23 Oct 2014 (Local Time) from KBCK Reporting Station
Haze Haze  
Wind Chill: 49°   Ceiling: 400
Heat Index: 49°   Visibility: 2.5mi
Dew Point: 49°   Wind: 3mph
Humidity: 100%   Direction: 210°SSW
Pressure: 30.01"   Gusts: NA
Location:  44.6°N, 90.96°W
Report Text: KBCK 232115Z AUTO 21003KT 2 1/2SM BR OVC004 09/09 A3001 RMK AO2 T00930093
Loading
Personal Weather Stations






























Interactive Weather Map
Tropical Storm Tracking
New forecast layout! Learn more

10-Day Weather Forecast

Advertisements
Track Severe Weather on mobile